createdAt,value
2023-04-25T00:01:25.177Z,20.60
2023-04-25T00:03:52.220Z,20.60
2023-04-25T00:06:19.654Z,20.60
2023-04-25T00:08:46.325Z,20.60
2023-04-25T00:11:13.019Z,20.60
2023-04-25T00:13:42.590Z,20.60
2023-04-25T00:16:09.488Z,20.60
2023-04-25T00:18:37.285Z,20.60
2023-04-25T00:21:04.065Z,20.60
2023-04-25T00:23:30.781Z,20.60
2023-04-25T00:25:57.458Z,20.60
2023-04-25T00:28:24.202Z,20.60
2023-04-25T00:30:51.349Z,20.60
2023-04-25T00:33:18.082Z,20.60
2023-04-25T00:35:45.056Z,20.60
2023-04-25T00:38:11.876Z,20.60
2023-04-25T00:40:38.635Z,20.60
2023-04-25T00:43:05.596Z,20.60
2023-04-25T00:45:32.453Z,20.60
2023-04-25T00:47:59.325Z,20.60
2023-04-25T00:50:26.235Z,20.60
2023-04-25T00:52:53.202Z,20.60
2023-04-25T00:55:20.927Z,20.60
2023-04-25T00:57:48.205Z,20.60
2023-04-25T01:00:15.779Z,20.60
2023-04-25T01:02:45.803Z,20.50
2023-04-25T01:05:13.118Z,20.60
2023-04-25T01:07:40.156Z,20.60
2023-04-25T01:10:07.436Z,20.60
2023-04-25T01:12:34.352Z,20.60
2023-04-25T01:15:01.148Z,20.60
2023-04-25T01:17:28.997Z,20.50
2023-04-25T01:19:56.287Z,20.60
2023-04-25T01:22:23.507Z,20.60
2023-04-25T01:24:51.544Z,20.60
2023-04-25T01:27:18.949Z,20.50
2023-04-25T01:29:46.311Z,20.50
2023-04-25T01:32:14.703Z,20.50
2023-04-25T01:34:41.474Z,20.50
2023-04-25T01:37:08.310Z,20.60
2023-04-25T01:39:35.058Z,20.50
2023-04-25T01:42:02.476Z,20.50
2023-04-25T01:44:30.736Z,20.50
2023-04-25T01:46:57.502Z,20.50
2023-04-25T01:49:24.725Z,20.60
2023-04-25T01:51:51.551Z,20.50
2023-04-25T01:54:19.334Z,20.50
2023-04-25T01:56:52.065Z,20.50
2023-04-25T01:59:20.934Z,20.50
2023-04-25T02:02:06.911Z,20.50
2023-04-25T02:04:36.003Z,20.60
2023-04-25T02:07:04.556Z,20.50
2023-04-25T02:09:43.994Z,20.50
2023-04-25T02:12:12.294Z,20.50
2023-04-25T02:15:02.217Z,20.50
2023-04-25T02:17:46.166Z,20.50
2023-04-25T02:20:13.552Z,20.50
2023-04-25T02:22:40.382Z,20.50
2023-04-25T02:25:07.640Z,20.50
2023-04-25T02:27:34.374Z,20.50
2023-04-25T02:30:01.211Z,20.50
2023-04-25T02:32:28.021Z,20.50
2023-04-25T02:34:54.961Z,20.50
2023-04-25T02:37:21.827Z,20.50
2023-04-25T02:39:48.604Z,20.50
2023-04-25T02:42:15.363Z,20.50
2023-04-25T02:44:42.027Z,20.50
2023-04-25T02:47:08.789Z,20.50
2023-04-25T02:49:35.732Z,20.50
2023-04-25T02:52:02.673Z,20.50
2023-04-25T02:54:29.365Z,20.50
2023-04-25T02:56:56.595Z,20.50
2023-04-25T02:59:27.525Z,20.50
2023-04-25T03:01:54.260Z,20.50
2023-04-25T03:04:21.875Z,20.50
2023-04-25T03:06:49.068Z,20.50
2023-04-25T03:09:15.902Z,20.50
2023-04-25T03:11:42.944Z,20.50
2023-04-25T03:14:09.686Z,20.50
2023-04-25T03:16:36.430Z,20.50
2023-04-25T03:19:03.940Z,20.50
2023-04-25T03:21:35.755Z,20.50
2023-04-25T03:24:04.229Z,20.50
2023-04-25T03:26:32.178Z,20.50
2023-04-25T03:28:59.951Z,20.40
2023-04-25T03:31:26.909Z,20.40
2023-04-25T03:33:53.692Z,20.40
2023-04-25T03:36:22.596Z,20.40
2023-04-25T03:38:49.376Z,20.40
2023-04-25T03:41:17.436Z,20.40
2023-04-25T03:43:48.127Z,20.40
2023-04-25T03:46:16.666Z,20.40
2023-04-25T03:48:43.622Z,20.40
2023-04-25T03:51:14.855Z,20.40
2023-04-25T03:53:44.532Z,20.40
2023-04-25T03:56:21.109Z,20.40
2023-04-25T03:58:53.470Z,20.40
2023-04-25T04:01:22.530Z,20.40
2023-04-25T04:03:49.360Z,20.40
2023-04-25T04:06:17.148Z,20.40
2023-04-25T04:08:47.976Z,20.40
2023-04-25T04:11:14.723Z,20.40
2023-04-25T04:13:41.446Z,20.40
2023-04-25T04:16:09.021Z,20.40
2023-04-25T04:18:36.710Z,20.40
2023-04-25T04:21:03.604Z,20.40
2023-04-25T04:23:34.622Z,20.40
2023-04-25T04:26:01.914Z,20.40
2023-04-25T04:29:08.018Z,20.40
2023-04-25T04:31:53.637Z,20.40
2023-04-25T04:34:20.969Z,20.30
2023-04-25T04:36:47.800Z,20.40
2023-04-25T04:39:15.105Z,20.40
2023-04-25T04:41:55.845Z,20.40
2023-04-25T04:44:37.682Z,20.40
2023-04-25T04:47:15.046Z,20.40
2023-04-25T04:50:17.496Z,20.40
2023-04-25T04:53:03.662Z,20.40
2023-04-25T04:55:53.725Z,20.40
2023-04-25T04:58:32.126Z,20.40
2023-04-25T05:01:08.530Z,20.40
2023-04-25T05:03:55.235Z,20.30
2023-04-25T05:06:35.614Z,20.30
2023-04-25T05:09:28.070Z,20.30
2023-04-25T05:12:13.619Z,20.40
2023-04-25T05:15:01.262Z,20.40
2023-04-25T05:17:41.129Z,20.40
2023-04-25T05:20:26.772Z,20.40
2023-04-25T05:23:10.741Z,20.40
2023-04-25T05:25:53.586Z,20.40
2023-04-25T05:28:38.305Z,20.40
2023-04-25T05:31:34.227Z,20.40
2023-04-25T05:34:05.531Z,20.40
2023-04-25T05:36:54.237Z,20.40
2023-04-25T05:39:20.984Z,20.40
2023-04-25T05:42:11.650Z,20.40
2023-04-25T05:44:56.844Z,20.40
2023-04-25T05:47:31.031Z,20.40
2023-04-25T05:50:24.076Z,20.40
2023-04-25T05:52:54.686Z,20.40
2023-04-25T05:55:27.918Z,20.40
2023-04-25T05:57:55.029Z,20.40
2023-04-25T06:00:24.842Z,20.40
2023-04-25T06:02:51.928Z,20.50
2023-04-25T06:05:19.477Z,20.40
2023-04-25T06:07:48.342Z,20.40
2023-04-25T06:10:15.988Z,20.40
2023-04-25T06:12:43.360Z,20.40
2023-04-25T06:15:24.434Z,20.40
2023-04-25T06:17:55.790Z,20.40
2023-04-25T06:20:25.229Z,20.40
2023-04-25T06:22:53.594Z,20.30
2023-04-25T06:25:22.613Z,20.40
2023-04-25T06:27:49.728Z,20.40
2023-04-25T06:30:19.285Z,20.40
2023-04-25T06:32:46.230Z,20.30
2023-04-25T06:35:14.045Z,20.30
2023-04-25T06:37:41.560Z,20.40
2023-04-25T06:40:09.011Z,20.40
2023-04-25T06:42:35.807Z,20.40
2023-04-25T06:45:22.400Z,20.40
2023-04-25T06:47:49.252Z,20.40
2023-04-25T06:50:16.069Z,20.40
2023-04-25T06:52:42.944Z,20.40
2023-04-25T06:55:10.262Z,20.40
2023-04-25T06:57:53.158Z,20.40
2023-04-25T07:00:40.001Z,20.50
2023-04-25T07:03:06.942Z,20.40
2023-04-25T07:05:33.862Z,20.40
2023-04-25T07:08:01.225Z,20.50
2023-04-25T07:10:28.511Z,20.40
2023-04-25T07:12:55.486Z,20.40
2023-04-25T07:15:22.738Z,20.40
2023-04-25T07:17:50.730Z,20.40
2023-04-25T07:20:17.544Z,20.40
2023-04-25T07:22:44.993Z,20.40
2023-04-25T07:25:11.950Z,20.40
2023-04-25T07:27:38.940Z,20.40
2023-04-25T07:30:13.811Z,20.40
2023-04-25T07:32:40.722Z,20.40
2023-04-25T07:35:08.766Z,20.50
2023-04-25T07:37:36.440Z,20.40
2023-04-25T07:40:11.577Z,20.40
2023-04-25T07:42:43.710Z,20.50
2023-04-25T07:45:12.219Z,20.50
2023-04-25T07:47:40.719Z,20.40
2023-04-25T07:50:08.570Z,20.40
2023-04-25T07:52:35.499Z,20.40
2023-04-25T07:55:12.832Z,20.50
2023-04-25T07:57:53.043Z,20.50
2023-04-25T08:00:20.879Z,20.60
2023-04-25T08:02:54.588Z,20.60
2023-04-25T08:05:23.145Z,20.70
2023-04-25T08:07:57.902Z,20.70
2023-04-25T08:10:25.038Z,20.70
2023-04-25T08:12:51.791Z,20.70
2023-04-25T08:15:18.635Z,20.70
2023-04-25T08:17:45.827Z,20.80
2023-04-25T08:20:13.631Z,20.80
2023-04-25T08:22:41.185Z,20.80
2023-04-25T08:25:20.809Z,20.80
2023-04-25T08:27:48.685Z,20.80
2023-04-25T08:30:17.012Z,20.80
2023-04-25T08:32:44.021Z,20.80
2023-04-25T08:35:25.541Z,20.70
2023-04-25T08:37:52.813Z,20.80
2023-04-25T08:40:26.960Z,20.80
2023-04-25T08:42:59.830Z,20.80
2023-04-25T08:45:28.859Z,20.80
2023-04-25T08:47:58.097Z,20.70
2023-04-25T08:50:27.170Z,20.70
2023-04-25T08:52:55.363Z,20.70
2023-04-25T08:55:23.648Z,20.70
2023-04-25T08:57:57.055Z,20.70
2023-04-25T09:00:24.357Z,20.80
2023-04-25T09:02:51.633Z,20.80
2023-04-25T09:05:21.626Z,20.80
2023-04-25T09:07:51.707Z,20.80
2023-04-25T09:10:18.581Z,20.80
2023-04-25T09:12:45.572Z,20.90
2023-04-25T09:15:20.498Z,20.90
2023-04-25T09:18:10.593Z,21.00
2023-04-25T09:21:00.792Z,21.00
2023-04-25T09:23:31.024Z,21.00
2023-04-25T09:25:58.742Z,20.90
2023-04-25T09:28:28.618Z,21.00
2023-04-25T09:30:58.861Z,21.00
2023-04-25T09:33:38.167Z,21.10
2023-04-25T09:36:09.577Z,21.10
2023-04-25T09:39:01.678Z,21.10
2023-04-25T09:41:30.561Z,21.10
2023-04-25T09:44:02.490Z,21.10
2023-04-25T09:46:39.104Z,21.10
2023-04-25T09:49:10.984Z,21.00
2023-04-25T09:51:56.301Z,21.00
2023-04-25T09:54:27.117Z,21.00
2023-04-25T09:57:21.384Z,20.90
2023-04-25T09:59:55.955Z,21.00
2023-04-25T10:02:26.137Z,20.90
2023-04-25T10:04:56.999Z,20.90
2023-04-25T10:07:31.850Z,21.00
2023-04-25T10:10:04.991Z,21.00
2023-04-25T10:12:33.774Z,21.00
2023-04-25T10:15:01.684Z,21.00
2023-04-25T10:17:29.364Z,21.00
2023-04-25T10:19:57.384Z,21.00
2023-04-25T10:22:42.167Z,21.00
2023-04-25T10:25:09.953Z,21.00
2023-04-25T10:27:37.982Z,21.00
2023-04-25T10:30:16.228Z,20.90
2023-04-25T10:32:43.956Z,21.00
2023-04-25T10:35:28.620Z,21.00
2023-04-25T10:38:11.808Z,21.00
2023-04-25T10:40:38.567Z,21.00
2023-04-25T10:43:38.351Z,21.00
2023-04-25T10:46:28.273Z,21.00
2023-04-25T10:49:00.359Z,21.00
2023-04-25T10:51:29.596Z,21.00
2023-04-25T10:54:03.967Z,21.00
2023-04-25T10:56:32.924Z,21.00
2023-04-25T10:59:19.829Z,20.90
2023-04-25T11:01:48.339Z,20.90
2023-04-25T11:04:23.670Z,20.90
2023-04-25T11:07:19.380Z,20.90
2023-04-25T11:09:46.667Z,20.90
2023-04-25T11:12:14.108Z,20.90
2023-04-25T11:17:08.503Z,20.80
2023-04-25T11:19:35.305Z,20.90
2023-04-25T11:22:04.060Z,20.90
2023-04-25T11:24:33.068Z,20.90
2023-04-25T11:27:03.647Z,20.90
2023-04-25T11:29:31.997Z,20.90
2023-04-25T11:31:59.501Z,20.80
2023-04-25T11:34:27.289Z,20.80
2023-04-25T11:36:54.743Z,20.80
2023-04-25T11:39:21.627Z,20.80
2023-04-25T11:41:48.553Z,20.80
2023-04-25T11:44:17.606Z,20.80
2023-04-25T11:46:45.178Z,20.80
2023-04-25T11:49:12.230Z,20.80
2023-04-25T11:51:40.557Z,20.80
2023-04-25T11:54:07.529Z,20.80
2023-04-25T11:56:34.397Z,20.80
2023-04-25T11:59:03.621Z,20.80
2023-04-25T12:01:38.293Z,20.70
2023-04-25T12:04:16.635Z,20.50
2023-04-25T12:06:47.702Z,20.40
2023-04-25T12:09:16.627Z,20.10
2023-04-25T12:11:44.628Z,20.00
2023-04-25T12:14:12.730Z,19.80
2023-04-25T12:16:47.284Z,19.70
2023-04-25T12:19:18.137Z,19.60
2023-04-25T12:21:57.385Z,19.70
2023-04-25T12:24:28.264Z,19.90
2023-04-25T12:27:06.344Z,20.10
2023-04-25T12:29:42.527Z,20.20
2023-04-25T12:32:15.388Z,20.30
2023-04-25T12:34:45.904Z,20.30
2023-04-25T12:37:12.869Z,20.40
2023-04-25T12:39:39.838Z,20.40
2023-04-25T12:42:09.651Z,20.40
2023-04-25T12:44:36.724Z,20.40
2023-04-25T12:47:04.705Z,20.40
2023-04-25T12:49:31.678Z,20.40
2023-04-25T12:51:58.801Z,20.50
2023-04-25T12:54:26.512Z,20.50
2023-04-25T12:56:53.600Z,20.50
2023-04-25T12:59:21.522Z,20.50
2023-04-25T13:01:49.288Z,20.50
2023-04-25T13:04:16.959Z,20.50
2023-04-25T13:06:44.291Z,20.50
2023-04-25T13:09:13.184Z,20.50
2023-04-25T13:11:41.512Z,20.50
2023-04-25T13:14:08.915Z,20.50
2023-04-25T13:16:35.893Z,20.50
2023-04-25T13:19:02.765Z,20.50
2023-04-25T13:21:33.349Z,20.50
2023-04-25T13:24:00.446Z,20.50
2023-04-25T13:26:27.245Z,20.60
2023-04-25T13:28:53.979Z,20.50
2023-04-25T13:31:20.803Z,20.50
2023-04-25T13:33:47.669Z,20.50
2023-04-25T13:36:14.502Z,20.50
2023-04-25T13:38:44.663Z,20.60
2023-04-25T13:41:14.705Z,20.50
2023-04-25T13:43:41.534Z,20.50
2023-04-25T13:46:08.837Z,20.50
2023-04-25T13:48:36.227Z,20.50
2023-04-25T13:51:03.008Z,20.50
2023-04-25T13:53:29.817Z,20.50
2023-04-25T13:55:56.586Z,20.50
2023-04-25T13:58:23.632Z,20.50
2023-04-25T14:00:50.416Z,20.50
2023-04-25T14:03:17.352Z,20.50
2023-04-25T14:05:44.226Z,20.50
2023-04-25T14:08:11.210Z,20.50
2023-04-25T14:10:38.880Z,20.50
2023-04-25T14:13:07.835Z,20.50
2023-04-25T14:15:35.936Z,20.50
2023-04-25T14:18:02.866Z,20.50
2023-04-25T14:20:30.332Z,20.50
2023-04-25T14:22:58.910Z,20.50
2023-04-25T14:25:26.400Z,20.50
2023-04-25T14:27:53.355Z,20.50
2023-04-25T14:30:21.698Z,20.60
2023-04-25T14:32:50.594Z,20.60
2023-04-25T14:35:17.612Z,20.50
2023-04-25T14:37:44.933Z,20.50
2023-04-25T14:40:14.127Z,20.40
2023-04-25T14:42:41.224Z,20.40
2023-04-25T14:45:09.811Z,20.40
2023-04-25T14:47:38.307Z,20.40
2023-04-25T14:50:06.549Z,20.40
2023-04-25T14:52:33.358Z,20.50
2023-04-25T14:55:02.741Z,20.50
2023-04-25T14:57:29.603Z,20.50
2023-04-25T14:59:56.368Z,20.50
2023-04-25T15:02:24.441Z,20.50
2023-04-25T15:04:51.609Z,20.50
2023-04-25T15:07:18.732Z,20.50
2023-04-25T15:09:45.549Z,20.50
2023-04-25T15:12:13.035Z,20.50
2023-04-25T15:14:39.826Z,20.50
2023-04-25T15:17:07.162Z,20.50
2023-04-25T15:19:33.918Z,20.50
2023-04-25T15:22:02.284Z,20.50
2023-04-25T15:24:29.830Z,20.50
2023-04-25T15:26:56.603Z,20.50
2023-04-25T15:29:23.309Z,20.50
2023-04-25T15:31:50.230Z,20.50
2023-04-25T15:34:17.105Z,20.50
2023-04-25T15:36:43.847Z,20.50
2023-04-25T15:39:10.894Z,20.50
2023-04-25T15:41:37.983Z,20.50
2023-04-25T15:44:05.452Z,20.50
2023-04-25T15:46:32.354Z,20.50
2023-04-25T15:48:59.200Z,20.50
2023-04-25T15:51:26.923Z,20.50
2023-04-25T15:53:54.154Z,20.60
2023-04-25T15:56:21.385Z,20.50
2023-04-25T15:58:48.503Z,20.50
2023-04-25T16:01:15.776Z,20.60
2023-04-25T16:03:42.892Z,20.50
2023-04-25T16:06:09.722Z,20.50
2023-04-25T16:08:36.543Z,20.50
2023-04-25T16:11:03.511Z,20.50
2023-04-25T16:13:30.327Z,20.50
2023-04-25T16:15:57.834Z,20.50
2023-04-25T16:18:24.965Z,20.50
2023-04-25T16:20:52.029Z,20.50
2023-04-25T16:23:19.285Z,20.50
2023-04-25T16:25:46.203Z,20.50
2023-04-25T16:28:13.173Z,20.50
2023-04-25T16:30:39.961Z,20.50
2023-04-25T16:33:06.843Z,20.50
2023-04-25T16:35:33.668Z,20.50
2023-04-25T16:38:01.067Z,20.50
2023-04-25T16:40:27.907Z,20.50
2023-04-25T16:42:54.804Z,20.50
2023-04-25T16:45:21.704Z,20.50
2023-04-25T16:47:48.506Z,20.50
2023-04-25T16:50:15.962Z,20.50
2023-04-25T16:52:44.459Z,20.50
2023-04-25T16:55:11.609Z,20.50
2023-04-25T16:57:38.327Z,20.50
2023-04-25T17:00:09.915Z,20.50
2023-04-25T17:02:37.102Z,20.50
2023-04-25T17:05:04.230Z,20.50
2023-04-25T17:07:31.079Z,20.50
2023-04-25T17:09:59.331Z,20.50
2023-04-25T17:12:26.071Z,20.50
2023-04-25T17:14:52.776Z,20.50
2023-04-25T17:17:19.544Z,20.60
2023-04-25T17:19:46.557Z,20.50
2023-04-25T17:22:13.477Z,20.50
2023-04-25T17:24:40.757Z,20.50
2023-04-25T17:27:07.743Z,20.50
2023-04-25T17:29:35.160Z,20.60
2023-04-25T17:32:02.200Z,20.50
2023-04-25T17:34:29.144Z,20.50
2023-04-25T17:36:56.035Z,20.50
2023-04-25T17:39:22.812Z,20.50
2023-04-25T17:41:49.529Z,20.50
2023-04-25T17:44:16.251Z,20.50
2023-04-25T17:46:43.169Z,20.50
2023-04-25T17:49:09.945Z,20.50
2023-04-25T17:51:37.241Z,20.50
2023-04-25T17:54:04.109Z,20.50
2023-04-25T17:56:31.173Z,20.50
2023-04-25T17:58:57.984Z,20.50
2023-04-25T18:01:24.750Z,20.50
2023-04-25T18:03:51.908Z,20.50
2023-04-25T18:06:19.241Z,20.50
2023-04-25T18:08:47.125Z,20.50
2023-04-25T18:11:14.077Z,20.50
2023-04-25T18:13:41.160Z,20.50
2023-04-25T18:16:08.411Z,20.50
2023-04-25T18:18:36.236Z,20.50
2023-04-25T18:21:05.174Z,20.50
2023-04-25T18:23:34.076Z,20.50
2023-04-25T18:26:02.288Z,20.50
2023-04-25T18:28:29.395Z,20.50
2023-04-25T18:30:56.888Z,20.50
2023-04-25T18:33:23.964Z,20.40
2023-04-25T18:35:58.233Z,20.40
2023-04-25T18:41:02.677Z,20.40
2023-04-25T18:43:37.147Z,20.40
2023-04-25T18:46:03.900Z,20.40
2023-04-25T18:48:30.711Z,20.40
2023-04-25T18:50:57.716Z,20.40
2023-04-25T18:53:24.436Z,20.40
2023-04-25T18:55:51.191Z,20.40
2023-04-25T18:58:17.990Z,20.40
2023-04-25T19:00:44.927Z,20.40
2023-04-25T19:03:12.520Z,20.40
2023-04-25T19:05:39.373Z,20.40
2023-04-25T19:08:06.342Z,20.40
2023-04-25T19:10:33.095Z,20.40
2023-04-25T19:12:59.972Z,20.40
2023-04-25T19:15:26.884Z,20.40
2023-04-25T19:17:53.775Z,20.40
2023-04-25T19:20:20.801Z,20.40
2023-04-25T19:22:48.326Z,20.40
2023-04-25T19:25:15.866Z,20.40
2023-04-25T19:27:42.678Z,20.40
2023-04-25T19:30:10.626Z,20.40
2023-04-25T19:32:38.720Z,20.40
2023-04-25T19:35:08.648Z,20.40
2023-04-25T19:37:37.439Z,20.40
2023-04-25T19:40:07.335Z,20.40
2023-04-25T19:42:34.081Z,20.40
2023-04-25T19:45:00.776Z,20.30
2023-04-25T19:47:28.285Z,20.40
2023-04-25T19:49:55.181Z,20.40
2023-04-25T19:52:22.121Z,20.40
2023-04-25T19:54:48.916Z,20.40
2023-04-25T19:57:15.645Z,20.40
2023-04-25T19:59:45.672Z,20.40
2023-04-25T20:02:12.432Z,20.40
2023-04-25T20:04:39.596Z,20.40
2023-04-25T20:07:06.329Z,20.40
2023-04-25T20:09:33.070Z,20.40
2023-04-25T20:11:59.786Z,20.40
2023-04-25T20:14:26.469Z,20.40
2023-04-25T20:16:53.777Z,20.40
2023-04-25T20:19:20.665Z,20.40
2023-04-25T20:21:47.434Z,20.40
2023-04-25T20:24:14.139Z,20.30
2023-04-25T20:26:40.938Z,20.40
2023-04-25T20:29:09.787Z,20.40
2023-04-25T20:31:37.035Z,20.40
2023-04-25T20:34:04.282Z,20.40
2023-04-25T20:36:32.129Z,20.40
2023-04-25T20:38:58.876Z,20.40
2023-04-25T20:41:25.735Z,20.40
2023-04-25T20:43:53.387Z,20.40
2023-04-25T20:46:20.621Z,20.30
2023-04-25T20:48:47.528Z,20.30
2023-04-25T20:51:14.385Z,20.40
2023-04-25T20:53:41.114Z,20.40
2023-04-25T20:56:07.870Z,20.30
2023-04-25T20:58:34.740Z,20.30
2023-04-25T21:01:04.147Z,20.40
2023-04-25T21:03:31.156Z,20.30
2023-04-25T21:05:58.027Z,20.30
2023-04-25T21:08:24.832Z,20.30
2023-04-25T21:10:52.946Z,20.30
2023-04-25T21:13:19.790Z,20.30
2023-04-25T21:15:46.458Z,20.30
2023-04-25T21:18:13.360Z,20.30
2023-04-25T21:20:40.230Z,20.30
2023-04-25T21:23:06.995Z,20.30
2023-04-25T21:25:34.000Z,20.30
2023-04-25T21:28:02.334Z,20.30
2023-04-25T21:30:29.865Z,20.30
2023-04-25T21:32:56.823Z,20.30
2023-04-25T21:35:23.646Z,20.30
2023-04-25T21:37:51.044Z,20.30
2023-04-25T21:40:18.058Z,20.30
2023-04-25T21:42:49.870Z,20.30
2023-04-25T21:45:16.858Z,20.30
2023-04-25T21:47:46.358Z,20.30
2023-04-25T21:50:13.900Z,20.30
2023-04-25T21:52:40.777Z,20.30
2023-04-25T21:55:08.459Z,20.30
2023-04-25T21:57:36.155Z,20.30
2023-04-25T22:00:04.517Z,20.30
2023-04-25T22:02:32.529Z,20.30
2023-04-25T22:04:59.466Z,20.30
2023-04-25T22:07:26.380Z,20.30
2023-04-25T22:09:55.548Z,20.30
2023-04-25T22:12:23.519Z,20.30
2023-04-25T22:14:51.076Z,20.30
2023-04-25T22:17:18.724Z,20.30
2023-04-25T22:19:46.529Z,20.30
2023-04-25T22:22:13.203Z,20.30
2023-04-25T22:24:40.111Z,20.30
2023-04-25T22:27:06.822Z,20.30
2023-04-25T22:29:34.163Z,20.30
2023-04-25T22:32:01.535Z,20.30
2023-04-25T22:34:28.455Z,20.20
2023-04-25T22:36:55.480Z,20.20
2023-04-25T22:39:22.253Z,20.30
2023-04-25T22:41:49.090Z,20.30
2023-04-25T22:44:16.271Z,20.30
2023-04-25T22:46:43.260Z,20.30
2023-04-25T22:49:10.039Z,20.30
2023-04-25T22:51:37.054Z,20.30
2023-04-25T22:54:05.418Z,20.30
2023-04-25T22:56:32.768Z,20.30
2023-04-25T22:58:59.559Z,20.30
2023-04-25T23:01:28.045Z,20.20
2023-04-25T23:03:55.296Z,20.20
2023-04-25T23:06:22.793Z,20.20
2023-04-25T23:08:49.760Z,20.30
2023-04-25T23:11:16.757Z,20.30
2023-04-25T23:13:43.629Z,20.20
2023-04-25T23:16:11.163Z,20.20
2023-04-25T23:18:39.460Z,20.30
2023-04-25T23:21:11.328Z,20.20
2023-04-25T23:23:38.921Z,20.30
2023-04-25T23:26:12.989Z,20.30
2023-04-25T23:28:41.881Z,20.30
2023-04-25T23:31:10.436Z,20.30
2023-04-25T23:33:37.426Z,20.30
2023-04-25T23:36:04.415Z,20.20
2023-04-25T23:38:31.952Z,20.20
2023-04-25T23:40:58.648Z,20.20
2023-04-25T23:43:25.318Z,20.20
2023-04-25T23:45:52.114Z,20.20
2023-04-25T23:48:18.846Z,20.20
2023-04-25T23:50:45.497Z,20.20
2023-04-25T23:53:12.194Z,20.20
2023-04-25T23:55:38.967Z,20.20
2023-04-25T23:58:05.663Z,20.20
